Time;durP1;ratioP1;P1;durP2;ratioP2;P2;SDS_P1;SDS_P2;PMS_P1;PMS_P2;Temp;Humidity;BMP_temperature;BMP_pressure;BME280_temperature;BME280_humidity;BME280_pressure;Samples;Min_cycle;Max_cycle;Signal;HPM_P1;HPM_P2
2021/11/20 00:01:22;;;;;;;42.97;24.57;;;13.60;73.10;;;;;;5101488;28;20589;-86
2021/11/20 00:03:48;;;;;;;45.30;24.13;;;13.60;73.30;;;;;;5081757;28;20448;-86
2021/11/20 00:06:18;;;;;;;39.30;24.55;;;13.60;73.40;;;;;;5101195;28;20180;-86
2021/11/20 00:08:43;;;;;;;40.13;22.60;;;13.50;73.60;;;;;;5099404;28;20160;-86
2021/11/20 00:11:12;;;;;;;38.70;23.80;;;13.60;73.80;;;;;;5078405;28;20642;-86
2021/11/20 00:13:41;;;;;;;38.22;24.35;;;13.70;73.60;;;;;;5078382;28;20218;-86
2021/11/20 00:16:11;;;;;;;41.13;23.05;;;13.70;73.40;;;;;;5097096;28;20636;-86
2021/11/20 00:18:38;;;;;;;44.45;24.65;;;13.70;73.40;;;;;;5086049;28;20563;-86
2021/11/20 00:21:14;;;;;;;38.95;24.92;;;13.60;73.10;;;;;;5087008;28;20171;-86
2021/11/20 00:23:44;;;;;;;40.63;24.50;;;13.60;73.20;;;;;;5103668;28;20203;-86
2021/11/20 00:26:14;;;;;;;39.47;23.00;;;13.60;73.30;;;;;;5086171;28;20203;-84
2021/11/20 00:29:25;;;;;;;36.95;22.00;;;13.70;73.40;;;;;;5104454;28;20175;-85
2021/11/20 00:31:52;;;;;;;39.05;22.67;;;13.60;72.90;;;;;;5103546;28;20175;-83
2021/11/20 00:34:22;;;;;;;35.60;20.60;;;13.70;72.80;;;;;;5106070;28;20210;-83
2021/11/20 00:36:49;;;;;;;38.20;20.58;;;13.60;72.60;;;;;;5093994;28;20259;-85
2021/11/20 00:39:18;;;;;;;46.83;22.35;;;13.50;72.70;;;;;;5096898;28;20247;-86
2021/11/20 00:41:45;;;;;;;37.38;21.35;;;13.60;72.50;;;;;;5096838;28;20168;-86
2021/11/20 00:44:11;;;;;;;35.50;20.73;;;13.60;72.60;;;;;;5085215;28;20662;-85
2021/11/20 00:46:37;;;;;;;33.65;20.60;;;13.60;72.80;;;;;;5083086;28;20184;-86
2021/11/20 00:49:04;;;;;;;36.20;21.40;;;13.60;72.80;;;;;;5083171;28;20191;-85
2021/11/20 00:51:31;;;;;;;40.47;20.95;;;13.50;73.70;;;;;;5101511;28;20425;-85
2021/11/20 00:53:57;;;;;;;32.10;20.92;;;13.50;73.30;;;;;;5082406;28;20233;-85
2021/11/20 00:56:24;;;;;;;37.30;21.50;;;13.50;73.40;;;;;;5082745;28;20204;-85
2021/11/20 00:58:51;;;;;;;35.30;20.77;;;13.50;73.50;;;;;;5082918;28;20236;-85
2021/11/20 01:01:30;;;;;;;31.65;19.13;;;13.50;73.50;;;;;;5086031;28;20232;-85
2021/11/20 01:03:55;;;;;;;28.08;19.63;;;13.40;73.50;;;;;;5087385;28;20287;-85
2021/11/20 01:06:21;;;;;;;27.90;18.90;;;13.50;73.70;;;;;;5106287;28;20171;-85
2021/11/20 01:08:49;;;;;;;32.77;20.73;;;13.40;73.50;;;;;;5107215;28;20431;-85
2021/11/20 01:11:27;;;;;;;29.48;19.35;;;13.30;73.80;;;;;;5108737;28;20447;-85
2021/11/20 01:13:54;;;;;;;32.85;19.90;;;13.30;74.10;;;;;;5115548;28;20261;-85
2021/11/20 01:16:21;;;;;;;32.42;19.15;;;13.30;74.10;;;;;;5099629;28;20207;-85
2021/11/20 01:18:47;;;;;;;25.30;17.95;;;13.30;74.10;;;;;;5117010;28;20183;-85
2021/11/20 01:21:14;;;;;;;27.88;18.80;;;13.30;74.10;;;;;;5083826;28;20207;-85
2021/11/20 01:23:42;;;;;;;27.88;17.63;;;13.20;74.10;;;;;;5102152;28;20195;-86
2021/11/20 01:26:08;;;;;;;29.23;18.98;;;13.30;74.20;;;;;;5117050;28;20198;-86
2021/11/20 01:28:36;;;;;;;31.90;18.83;;;13.30;74.10;;;;;;5101849;28;20655;-87
2021/11/20 01:31:04;;;;;;;27.83;17.40;;;13.30;74.00;;;;;;5084059;28;20258;-86
2021/11/20 01:33:31;;;;;;;27.55;16.90;;;13.30;74.00;;;;;;5084955;28;20180;-86
2021/11/20 01:35:58;;;;;;;25.45;16.90;;;13.30;73.80;;;;;;5085611;28;20223;-86
2021/11/20 01:38:24;;;;;;;23.80;15.27;;;13.30;73.70;;;;;;5085624;28;20205;-87
2021/11/20 01:40:51;;;;;;;26.02;16.45;;;13.40;73.50;;;;;;5085591;28;20203;-86
2021/11/20 01:43:16;;;;;;;25.35;16.10;;;13.50;73.30;;;;;;5084761;28;20180;-86
2021/11/20 01:45:56;;;;;;;28.23;16.97;;;13.50;72.90;;;;;;5085854;28;20187;-86
2021/11/20 01:48:40;;;;;;;21.95;15.55;;;13.50;72.70;;;;;;5086012;28;20634;-86
2021/11/20 01:51:11;;;;;;;20.70;13.98;;;13.30;72.30;;;;;;5087912;28;20184;-86
2021/11/20 01:53:48;;;;;;;17.85;13.68;;;13.20;72.00;;;;;;5085450;28;20264;-86
2021/11/20 01:56:16;;;;;;;23.17;15.93;;;13.40;71.80;;;;;;5090771;28;20216;-86
2021/11/20 01:59:05;;;;;;;22.70;15.95;;;13.40;71.70;;;;;;5113573;28;20172;-86
2021/11/20 02:02:17;;;;;;;23.23;15.20;;;13.40;71.50;;;;;;5057750;28;20540;-86
2021/11/20 02:04:53;;;;;;;17.60;12.43;;;13.50;71.60;;;;;;5085189;28;20271;-86
2021/11/20 02:07:48;;;;;;;19.55;13.63;;;13.60;71.40;;;;;;5110923;28;20180;-86
2021/11/20 02:10:25;;;;;;;18.55;13.65;;;13.60;71.30;;;;;;5104136;28;20242;-86
2021/11/20 02:12:55;;;;;;;19.05;14.18;;;13.50;71.20;;;;;;5088095;28;20255;-85
2021/11/20 02:15:53;;;;;;;19.98;12.75;;;13.50;71.20;;;;;;5099665;28;20284;-86
2021/11/20 02:18:22;;;;;;;18.20;13.25;;;13.40;71.10;;;;;;5094658;28;20184;-86
2021/11/20 02:20:56;;;;;;;20.60;14.40;;;13.40;71.10;;;;;;5080705;28;20223;-86
2021/11/20 02:23:21;;;;;;;17.35;12.88;;;13.40;71.10;;;;;;5081181;28;20260;-86
2021/11/20 02:25:48;;;;;;;20.50;14.17;;;13.50;71.20;;;;;;5081898;28;20424;-86
2021/11/20 02:28:15;;;;;;;18.77;14.30;;;13.60;70.60;;;;;;5099733;28;20175;-86
2021/11/20 02:30:48;;;;;;;20.90;14.93;;;13.50;70.70;;;;;;5080597;28;20195;-86
2021/11/20 02:33:22;;;;;;;20.25;14.25;;;13.40;70.80;;;;;;5080304;28;20566;-86
2021/11/20 02:35:54;;;;;;;18.65;13.38;;;13.30;70.90;;;;;;5098430;28;20235;-86
2021/11/20 02:38:26;;;;;;;18.98;13.88;;;13.30;70.80;;;;;;5083359;28;20199;-86
2021/11/20 02:40:54;;;;;;;22.25;15.40;;;13.20;70.90;;;;;;5080632;28;20217;-86
2021/11/20 02:43:21;;;;;;;21.38;15.15;;;13.30;71.00;;;;;;5079707;28;20172;-86
2021/11/20 02:45:50;;;;;;;20.75;13.63;;;13.40;70.90;;;;;;5080248;28;20661;-86
2021/11/20 02:48:16;;;;;;;19.13;15.35;;;13.40;70.80;;;;;;5080605;28;20184;-85
2021/11/20 02:50:50;;;;;;;22.77;14.23;;;13.40;70.70;;;;;;5080207;28;20194;-86
2021/11/20 02:53:20;;;;;;;23.90;16.77;;;13.60;70.60;;;;;;5077969;28;20190;-85
2021/11/20 02:55:52;;;;;;;23.00;15.98;;;13.60;70.20;;;;;;5084422;28;20238;-86
2021/11/20 02:58:22;;;;;;;25.58;16.40;;;13.40;70.00;;;;;;5083116;28;20218;-86
2021/11/20 03:00:52;;;;;;;25.42;17.70;;;13.40;69.90;;;;;;5086617;28;20172;-85
2021/11/20 03:03:18;;;;;;;25.05;17.20;;;13.40;70.00;;;;;;5087246;28;20252;-86
2021/11/20 03:05:44;;;;;;;24.10;17.00;;;13.30;69.90;;;;;;5087422;28;20615;-85
2021/11/20 03:08:09;;;;;;;24.70;15.70;;;13.20;70.60;;;;;;5085299;28;20418;-86
2021/11/20 03:10:35;;;;;;;27.50;16.47;;;13.20;70.00;;;;;;5084074;28;20279;-86
2021/11/20 03:13:01;;;;;;;23.23;15.57;;;13.20;70.10;;;;;;5082203;28;20191;-87
2021/11/20 03:15:27;;;;;;;24.00;15.47;;;13.20;70.20;;;;;;5097415;28;20283;-86
2021/11/20 03:17:52;;;;;;;23.13;15.47;;;13.30;70.40;;;;;;5079147;28;20500;-86
2021/11/20 03:20:19;;;;;;;22.80;15.27;;;13.30;70.30;;;;;;5063580;28;20426;-86
2021/11/20 03:22:51;;;;;;;21.58;14.50;;;13.40;70.20;;;;;;5099315;28;20236;-86
2021/11/20 03:25:18;;;;;;;24.60;16.00;;;13.30;70.10;;;;;;5080639;28;20257;-86
2021/11/20 03:27:44;;;;;;;21.13;13.65;;;13.30;69.90;;;;;;5082028;28;20179;-86
2021/11/20 03:30:10;;;;;;;20.40;14.63;;;13.30;70.00;;;;;;5081341;28;20180;-86
2021/11/20 03:32:36;;;;;;;24.13;14.05;;;13.10;70.10;;;;;;5083016;28;20164;-86
2021/11/20 03:35:04;;;;;;;18.23;12.87;;;13.10;70.40;;;;;;5087643;28;20210;-86
2021/11/20 03:37:31;;;;;;;18.83;13.38;;;13.20;70.50;;;;;;5083021;28;20513;-86
2021/11/20 03:39:56;;;;;;;20.50;14.07;;;13.10;70.40;;;;;;5082876;28;20187;-86
2021/11/20 03:42:23;;;;;;;21.13;14.90;;;13.10;70.50;;;;;;5083677;28;20205;-85
2021/11/20 03:44:49;;;;;;;23.90;14.90;;;13.10;70.60;;;;;;5082561;28;20198;-86
2021/11/20 03:47:15;;;;;;;23.93;14.70;;;13.00;70.60;;;;;;5101578;28;20639;-86
2021/11/20 03:49:42;;;;;;;21.58;13.93;;;13.10;70.80;;;;;;5084359;28;20557;-85
2021/11/20 03:52:09;;;;;;;16.70;12.40;;;13.20;70.70;;;;;;5091114;28;20263;-86
2021/11/20 03:54:35;;;;;;;23.85;14.30;;;13.20;70.60;;;;;;5090675;28;20211;-85
2021/11/20 03:57:01;;;;;;;21.60;13.23;;;13.10;70.60;;;;;;5087120;28;20207;-85
2021/11/20 03:59:27;;;;;;;21.80;14.75;;;13.20;70.50;;;;;;5105401;28;20454;-86
2021/11/20 04:01:52;;;;;;;22.97;15.30;;;13.20;70.40;;;;;;5105599;28;20207;-86
2021/11/20 04:04:19;;;;;;;21.00;14.50;;;13.20;70.40;;;;;;5086513;28;20437;-86
2021/11/20 04:06:45;;;;;;;21.10;13.98;;;13.20;70.40;;;;;;5088905;28;20172;-86
2021/11/20 04:09:14;;;;;;;24.50;15.52;;;13.10;70.50;;;;;;5114825;28;20180;-86
2021/11/20 04:11:44;;;;;;;26.38;16.73;;;13.10;70.70;;;;;;5100895;28;20172;-85
2021/11/20 04:14:10;;;;;;;28.00;15.85;;;13.10;70.80;;;;;;5099337;28;20203;-85
2021/11/20 04:16:36;;;;;;;25.40;15.32;;;13.10;70.80;;;;;;5087401;28;20207;-86
2021/11/20 04:19:03;;;;;;;24.33;15.38;;;13.20;70.70;;;;;;5102783;28;20179;-86
2021/11/20 04:21:29;;;;;;;27.75;16.92;;;13.20;70.70;;;;;;5102489;28;20186;-86
2021/11/20 04:23:56;;;;;;;28.20;17.27;;;13.20;70.70;;;;;;5082743;28;20231;-86
2021/11/20 04:26:24;;;;;;;25.55;16.23;;;13.20;70.60;;;;;;5097073;28;20420;-86
2021/11/20 04:28:49;;;;;;;26.95;16.63;;;13.30;70.60;;;;;;5118370;28;20215;-85
2021/11/20 04:31:17;;;;;;;28.47;17.23;;;13.30;70.40;;;;;;5100517;28;20167;-87
2021/11/20 04:33:43;;;;;;;28.88;17.67;;;13.20;70.40;;;;;;5120183;28;20187;-87
2021/11/20 04:36:09;;;;;;;31.05;17.98;;;13.20;70.50;;;;;;5117358;28;20203;-87
2021/11/20 04:38:35;;;;;;;28.10;18.48;;;13.20;70.60;;;;;;5100262;28;20156;-86
2021/11/20 04:41:02;;;;;;;28.67;17.63;;;13.20;70.60;;;;;;5099997;28;20259;-85
2021/11/20 04:43:28;;;;;;;29.92;20.60;;;13.20;70.60;;;;;;5106640;28;20252;-85
2021/11/20 04:45:54;;;;;;;32.00;18.63;;;13.10;70.70;;;;;;5105791;28;20188;-85
2021/11/20 04:48:21;;;;;;;29.50;19.77;;;13.10;70.70;;;;;;5097039;28;20442;-85
2021/11/20 04:50:48;;;;;;;35.45;20.50;;;13.10;70.70;;;;;;5092822;28;20176;-85
2021/11/20 04:53:14;;;;;;;31.23;18.80;;;13.10;71.00;;;;;;5088465;28;20267;-86
2021/11/20 04:55:40;;;;;;;30.40;19.63;;;13.30;71.10;;;;;;5103044;28;20234;-86
2021/11/20 04:58:06;;;;;;;32.67;18.13;;;13.40;70.70;;;;;;5080463;28;20183;-86
2021/11/20 05:00:37;;;;;;;29.58;17.98;;;13.50;70.70;;;;;;5079503;28;20224;-86
2021/11/20 05:03:07;;;;;;;29.55;18.65;;;13.60;70.40;;;;;;5079331;28;20286;-87
2021/11/20 05:05:39;;;;;;;30.92;18.15;;;13.70;70.00;;;;;;5096340;28;20203;-86
2021/11/20 05:08:05;;;;;;;33.85;19.48;;;13.80;69.70;;;;;;5064319;28;20243;-86
2021/11/20 05:10:33;;;;;;;31.07;17.93;;;13.80;69.30;;;;;;5078096;28;20604;-87
2021/11/20 05:12:59;;;;;;;30.13;16.88;;;13.50;69.60;;;;;;5095760;28;20429;-87
2021/11/20 05:15:27;;;;;;;30.17;18.58;;;13.40;70.10;;;;;;5077969;28;20204;-87
2021/11/20 05:17:53;;;;;;;32.55;18.35;;;13.30;70.50;;;;;;5078331;28;20172;-87
2021/11/20 05:20:19;;;;;;;29.63;18.50;;;13.20;70.80;;;;;;5095912;28;20206;-86
2021/11/20 05:22:45;;;;;;;32.95;18.67;;;13.40;70.90;;;;;;5095240;28;20456;-86
2021/11/20 05:25:12;;;;;;;28.90;18.13;;;13.60;70.60;;;;;;5076847;28;20212;-87
2021/11/20 05:27:38;;;;;;;29.48;17.98;;;13.70;70.20;;;;;;5077895;28;20822;-87
2021/11/20 05:30:14;;;;;;;25.23;16.70;;;13.80;70.10;;;;;;5077657;28;20503;-87
2021/11/20 05:32:39;;;;;;;27.58;18.50;;;13.80;70.00;;;;;;5077216;28;20538;-87
2021/11/20 05:35:05;;;;;;;30.27;19.47;;;13.50;70.20;;;;;;5077546;28;20266;-87
2021/11/20 05:37:31;;;;;;;30.03;20.07;;;13.40;70.70;;;;;;5076718;28;20570;-87
2021/11/20 05:39:58;;;;;;;30.80;17.77;;;13.30;71.10;;;;;;5077099;28;20491;-86
2021/11/20 05:42:25;;;;;;;29.20;18.85;;;13.20;71.30;;;;;;5076794;28;20639;-87
2021/11/20 05:44:50;;;;;;;29.77;17.80;;;13.30;71.50;;;;;;5076998;28;20204;-85
2021/11/20 05:47:17;;;;;;;32.87;18.90;;;13.30;71.70;;;;;;5101696;28;20245;-86
2021/11/20 05:49:43;;;;;;;27.17;17.85;;;13.30;71.80;;;;;;5084570;28;20509;-86
2021/11/20 05:52:11;;;;;;;35.35;21.95;;;13.30;71.90;;;;;;5086130;28;20176;-86
2021/11/20 05:54:38;;;;;;;31.08;19.60;;;13.30;72.80;;;;;;5103014;28;20192;-86
2021/11/20 05:57:04;;;;;;;34.75;20.17;;;13.30;71.90;;;;;;5085773;28;20200;-86
2021/11/20 05:59:30;;;;;;;30.27;19.10;;;13.40;72.10;;;;;;5103520;28;20176;-86
2021/11/20 06:01:56;;;;;;;35.27;19.27;;;13.50;72.10;;;;;;5104045;28;20187;-86
2021/11/20 06:04:22;;;;;;;36.43;22.13;;;13.40;71.90;;;;;;5083750;28;20532;-86
2021/11/20 06:06:48;;;;;;;39.33;21.20;;;13.50;72.10;;;;;;5103375;28;20194;-86
2021/11/20 06:09:14;;;;;;;42.05;22.08;;;13.50;72.40;;;;;;5085880;28;20547;-86
2021/11/20 06:11:41;;;;;;;40.85;24.60;;;13.70;72.40;;;;;;5087600;28;20643;-86
2021/11/20 06:14:07;;;;;;;41.08;24.00;;;13.60;72.20;;;;;;5085338;28;20222;-86
2021/11/20 06:16:34;;;;;;;48.33;26.15;;;13.50;72.60;;;;;;5083331;28;20211;-86
2021/11/20 06:19:00;;;;;;;48.00;26.60;;;13.50;72.80;;;;;;5082056;28;20223;-86
2021/11/20 06:21:26;;;;;;;41.37;22.43;;;13.40;73.10;;;;;;5077461;28;20194;-86
2021/11/20 06:23:52;;;;;;;41.53;25.80;;;13.40;73.40;;;;;;5078774;28;20446;-86
2021/11/20 06:26:19;;;;;;;43.53;26.23;;;13.30;73.70;;;;;;5100212;28;20191;-86
2021/11/20 06:28:44;;;;;;;40.20;24.38;;;13.30;74.10;;;;;;5081027;28;20429;-86
2021/11/20 06:31:10;;;;;;;41.23;26.30;;;13.30;74.30;;;;;;5081603;28;20188;-86
2021/11/20 06:33:36;;;;;;;44.80;26.75;;;13.30;74.40;;;;;;5081090;28;20227;-86
2021/11/20 06:36:03;;;;;;;42.75;25.17;;;13.40;74.50;;;;;;5082083;28;20208;-86
2021/11/20 06:38:30;;;;;;;48.30;26.60;;;13.50;74.70;;;;;;5086797;28;20179;-87
2021/11/20 06:41:00;;;;;;;38.63;25.08;;;13.50;75.10;;;;;;5096921;28;20190;-87
2021/11/20 06:43:28;;;;;;;41.00;24.05;;;13.30;74.60;;;;;;5100593;28;20176;-86
2021/11/20 06:45:57;;;;;;;43.90;23.98;;;13.40;74.90;;;;;;5100321;28;20643;-86
2021/11/20 06:48:23;;;;;;;39.42;22.70;;;13.30;75.10;;;;;;5092847;28;20184;-86
2021/11/20 06:50:51;;;;;;;44.70;23.17;;;13.20;75.90;;;;;;5084204;28;20213;-86
2021/11/20 06:53:19;;;;;;;40.75;24.75;;;13.30;75.40;;;;;;5085187;28;20179;-87
2021/11/20 06:55:46;;;;;;;38.78;22.63;;;13.10;75.60;;;;;;5104759;28;20681;-86
2021/11/20 07:00:46;;;;;;;38.22;22.65;;;13.10;76.30;;;;;;5106789;28;20180;-86
2021/11/20 07:03:16;;;;;;;49.40;27.30;;;13.10;76.20;;;;;;5080031;28;20160;-85
2021/11/20 07:05:50;;;;;;;39.28;22.80;;;13.10;76.40;;;;;;5087364;28;20202;-85
2021/11/20 07:08:18;;;;;;;41.50;23.52;;;13.00;76.40;;;;;;5086424;28;20243;-86
2021/11/20 07:10:45;;;;;;;39.90;21.40;;;13.10;76.70;;;;;;5092752;28;20179;-86
2021/11/20 07:13:13;;;;;;;38.78;22.27;;;13.20;76.70;;;;;;5081154;28;20225;-86
2021/11/20 07:15:40;;;;;;;36.55;22.20;;;13.20;76.40;;;;;;5083560;28;20206;-86
2021/11/20 07:18:05;;;;;;;34.47;21.05;;;13.10;76.50;;;;;;5085744;28;20209;-86
2021/11/20 07:20:34;;;;;;;37.30;20.57;;;13.10;76.60;;;;;;5085784;28;20175;-86
2021/11/20 07:23:00;;;;;;;31.77;20.38;;;13.10;76.70;;;;;;5092616;28;20196;-87
2021/11/20 07:25:29;;;;;;;39.05;21.15;;;13.00;76.80;;;;;;5100344;28;20223;-85
2021/11/20 07:27:56;;;;;;;33.65;20.58;;;13.00;77.00;;;;;;5118308;28;20180;-85
2021/11/20 07:30:24;;;;;;;34.72;18.42;;;13.00;77.10;;;;;;5095442;28;20218;-81
2021/11/20 07:32:50;;;;;;;36.10;21.38;;;12.90;77.30;;;;;;5084640;28;20172;-82
2021/11/20 07:35:33;;;;;;;28.73;18.13;;;13.30;77.10;;;;;;5080369;28;20657;-81
2021/11/20 07:37:59;;;;;;;26.00;16.25;;;13.30;76.50;;;;;;5099403;28;20188;-82
2021/11/20 07:40:26;;;;;;;25.42;16.15;;;13.40;76.00;;;;;;5099838;28;20646;-81
2021/11/20 07:42:52;;;;;;;30.75;15.45;;;13.30;75.90;;;;;;5090416;28;20172;-82
2021/11/20 07:45:19;;;;;;;26.05;16.20;;;13.20;75.90;;;;;;5090160;28;20280;-82
2021/11/20 07:47:45;;;;;;;28.67;16.02;;;13.10;76.30;;;;;;5085714;28;20229;-82
2021/11/20 07:50:12;;;;;;;25.83;14.03;;;13.30;76.00;;;;;;5094439;28;20183;-82
2021/11/20 07:52:38;;;;;;;23.08;14.27;;;13.30;75.80;;;;;;5112902;28;20412;-83
2021/11/20 07:55:05;;;;;;;22.13;13.83;;;13.20;75.80;;;;;;5112155;28;20196;-83
2021/11/20 07:57:31;;;;;;;24.60;13.25;;;13.20;76.10;;;;;;5113098;28;20468;-82
2021/11/20 07:59:57;;;;;;;25.93;13.60;;;13.20;76.00;;;;;;5095954;28;20231;-82
2021/11/20 08:02:23;;;;;;;23.10;14.07;;;13.20;75.90;;;;;;5094167;28;20402;-81
2021/11/20 08:04:48;;;;;;;22.30;13.73;;;13.20;75.80;;;;;;5092456;28;20570;-81
2021/11/20 08:07:14;;;;;;;22.40;12.77;;;13.30;75.60;;;;;;5085339;28;20549;-81
2021/11/20 08:09:40;;;;;;;19.00;12.63;;;13.10;75.30;;;;;;5102134;28;20422;-82
2021/11/20 08:12:06;;;;;;;16.57;11.63;;;13.20;75.70;;;;;;5084478;28;20190;-81
2021/11/20 08:14:32;;;;;;;21.00;12.60;;;13.20;75.80;;;;;;5102889;28;20544;-81
2021/11/20 08:16:58;;;;;;;14.50;10.30;;;13.00;77.50;;;;;;5084523;28;20211;-81
2021/11/20 08:19:24;;;;;;;18.87;13.00;;;13.20;78.70;;;;;;5083200;28;20172;-82
2021/11/20 08:21:50;;;;;;;21.17;13.88;;;13.40;78.30;;;;;;5100504;28;20543;-82
2021/11/20 08:24:16;;;;;;;19.93;12.73;;;13.30;77.00;;;;;;5082122;28;20204;-84
2021/11/20 08:26:43;;;;;;;22.23;14.65;;;13.40;76.30;;;;;;5097401;28;20680;-84
2021/11/20 08:29:18;;;;;;;20.80;12.93;;;13.40;76.60;;;;;;5085652;28;20190;-84
2021/11/20 08:31:46;;;;;;;25.33;14.30;;;13.30;75.20;;;;;;5121393;28;20535;-84
2021/11/20 08:34:14;;;;;;;19.90;12.57;;;13.30;75.00;;;;;;5100904;28;20228;-84
2021/11/20 08:36:40;;;;;;;22.77;13.60;;;13.20;74.70;;;;;;5101725;28;20194;-84
2021/11/20 08:39:08;;;;;;;19.15;12.32;;;13.10;74.70;;;;;;5101637;28;20232;-84
2021/11/20 08:41:34;;;;;;;21.23;13.43;;;13.20;74.80;;;;;;5098537;28;20176;-84
2021/11/20 08:44:00;;;;;;;26.97;13.00;;;13.30;74.60;;;;;;5080078;28;20333;-84
2021/11/20 08:46:27;;;;;;;19.37;12.80;;;13.30;74.60;;;;;;5080719;28;20417;-84
2021/11/20 08:48:53;;;;;;;23.27;11.90;;;13.50;74.30;;;;;;5080390;28;20505;-84
2021/11/20 08:51:21;;;;;;;19.27;12.10;;;13.50;73.80;;;;;;5080457;28;20206;-84
2021/11/20 08:53:49;;;;;;;22.27;13.35;;;13.50;73.60;;;;;;5079668;28;20948;-84
2021/11/20 08:56:15;;;;;;;19.27;12.07;;;13.60;72.90;;;;;;5080242;28;20298;-84
2021/11/20 08:58:41;;;;;;;19.50;12.50;;;13.60;72.70;;;;;;5082226;28;20203;-84
2021/11/20 09:01:06;;;;;;;18.30;10.40;;;13.70;72.50;;;;;;5101295;28;20195;-84
2021/11/20 09:03:35;;;;;;;18.73;12.47;;;13.70;72.30;;;;;;5078528;28;20414;-86
2021/11/20 09:06:17;;;;;;;20.88;12.60;;;13.70;72.00;;;;;;5097051;28;20225;-85
2021/11/20 09:08:59;;;;;;;19.85;11.13;;;13.70;72.00;;;;;;5096364;28;20179;-85
2021/11/20 09:11:51;;;;;;;15.73;10.90;;;13.70;71.70;;;;;;5097488;28;20195;-85
2021/11/20 09:14:20;;;;;;;18.38;10.20;;;13.60;71.60;;;;;;5084173;28;20250;-85
2021/11/20 09:16:45;;;;;;;19.67;10.93;;;13.50;72.10;;;;;;5082850;28;20683;-83
2021/11/20 09:19:12;;;;;;;14.90;10.60;;;13.60;71.90;;;;;;5080336;28;20215;-84
2021/11/20 09:21:39;;;;;;;17.50;10.27;;;13.70;71.80;;;;;;5080730;28;20414;-84
2021/11/20 09:24:08;;;;;;;17.38;10.40;;;13.70;71.50;;;;;;5082229;28;20202;-84
2021/11/20 09:26:36;;;;;;;13.88;9.95;;;13.60;71.40;;;;;;5082216;28;20725;-84
2021/11/20 09:29:04;;;;;;;14.10;10.35;;;13.60;71.50;;;;;;5081800;28;20210;-84
2021/11/20 09:31:32;;;;;;;16.42;11.32;;;13.60;71.40;;;;;;5083663;28;20229;-83
2021/11/20 09:33:58;;;;;;;14.00;11.25;;;13.60;71.30;;;;;;5107506;28;20266;-84
2021/11/20 09:36:28;;;;;;;18.10;10.63;;;13.80;71.00;;;;;;5108746;28;20206;-84
2021/11/20 09:38:56;;;;;;;15.68;10.75;;;13.80;70.90;;;;;;5090819;28;20172;-84
2021/11/20 09:41:57;;;;;;;16.10;11.10;;;13.60;70.80;;;;;;5096969;28;20180;-87
2021/11/20 09:44:23;;;;;;;16.02;11.65;;;13.70;70.80;;;;;;5095203;28;20220;-86
2021/11/20 09:46:53;;;;;;;14.07;9.20;;;13.70;70.80;;;;;;5097608;28;20186;-84
2021/11/20 09:49:29;;;;;;;13.63;10.35;;;13.60;70.60;;;;;;5112442;28;20183;-84
2021/11/20 09:51:56;;;;;;;14.00;9.93;;;13.60;70.70;;;;;;5123083;28;20164;-83
2021/11/20 09:54:35;;;;;;;15.63;10.75;;;13.70;71.10;;;;;;5101055;28;20251;-83
2021/11/20 09:57:15;;;;;;;14.57;10.00;;;13.70;71.40;;;;;;5105000;28;20214;-85
2021/11/20 09:59:47;;;;;;;14.88;10.18;;;13.70;70.30;;;;;;5123114;28;20200;-85
2021/11/20 10:02:38;;;;;;;17.92;10.93;;;13.80;70.10;;;;;;5104635;28;20201;-85
2021/11/20 10:05:06;;;;;;;16.13;10.85;;;13.70;70.00;;;;;;5065182;28;20271;-85
2021/11/20 10:07:50;;;;;;;15.05;10.45;;;13.70;69.90;;;;;;5084099;28;20227;-84
2021/11/20 10:10:24;;;;;;;18.33;10.63;;;13.50;70.10;;;;;;5068607;28;20177;-84
2021/11/20 10:13:10;;;;;;;17.83;11.05;;;13.70;70.20;;;;;;5087868;28;20269;-84
2021/11/20 10:15:57;;;;;;;16.83;9.30;;;13.70;70.10;;;;;;5088256;28;20207;-84
2021/11/20 10:18:40;;;;;;;17.92;10.15;;;13.90;69.70;;;;;;5106754;28;20175;-84
2021/11/20 10:21:16;;;;;;;25.00;10.77;;;14.00;69.30;;;;;;5101069;28;20172;-85
2021/11/20 10:23:55;;;;;;;18.45;11.65;;;14.00;69.00;;;;;;5098871;28;20195;-85
2021/11/20 10:26:52;;;;;;;16.80;10.65;;;14.00;68.90;;;;;;5096072;28;20175;-84
2021/11/20 10:29:42;;;;;;;19.58;11.98;;;14.00;68.50;;;;;;5077185;28;20757;-85
2021/11/20 10:32:17;;;;;;;19.17;10.50;;;14.00;68.30;;;;;;5076096;28;20177;-85
2021/11/20 10:34:58;;;;;;;15.07;10.38;;;14.10;68.50;;;;;;5077752;28;20206;-85
2021/11/20 10:37:27;;;;;;;16.35;11.57;;;14.00;68.20;;;;;;5059456;28;20200;-85
2021/11/20 10:39:58;;;;;;;15.10;10.85;;;13.90;68.40;;;;;;5059707;28;20601;-85
2021/11/20 10:42:41;;;;;;;15.23;9.82;;;14.00;68.70;;;;;;5068875;28;20195;-85
2021/11/20 10:45:36;;;;;;;11.35;8.68;;;14.00;68.50;;;;;;5109721;28;20203;-85
2021/11/20 10:48:25;;;;;;;17.55;11.05;;;14.10;68.10;;;;;;5070962;28;20191;-85
2021/11/20 10:51:21;;;;;;;12.80;10.45;;;13.90;68.00;;;;;;5043618;28;20232;-85
2021/11/20 10:53:49;;;;;;;12.27;9.50;;;13.80;68.10;;;;;;5101414;28;20276;-85
2021/11/20 10:56:15;;;;;;;16.92;11.25;;;13.90;68.30;;;;;;5093424;28;20204;-85
2021/11/20 10:58:59;;;;;;;17.50;11.37;;;13.90;68.10;;;;;;5095330;28;20178;-82
2021/11/20 11:02:00;;;;;;;24.13;11.40;;;13.90;68.30;;;;;;5083634;28;20170;-83
2021/11/20 11:05:09;;;;;;;16.52;11.18;;;14.00;68.10;;;;;;5064076;28;20721;-83
2021/11/20 11:07:59;;;;;;;18.85;10.95;;;14.10;67.90;;;;;;5085401;28;20184;-83
2021/11/20 11:10:42;;;;;;;12.88;10.25;;;14.00;67.80;;;;;;5098146;28;20172;-82
2021/11/20 11:13:13;;;;;;;17.60;11.50;;;13.80;67.50;;;;;;5091152;28;20209;-82
2021/11/20 11:16:07;;;;;;;17.83;11.52;;;13.80;67.80;;;;;;5079206;28;20179;-83
2021/11/20 11:18:55;;;;;;;18.08;11.65;;;13.60;67.90;;;;;;5076774;28;20169;-82
2021/11/20 11:21:32;;;;;;;18.88;11.90;;;13.50;68.40;;;;;;5078953;28;20205;-82
2021/11/20 11:24:26;;;;;;;18.05;11.25;;;13.60;68.60;;;;;;5092974;28;20206;-82
2021/11/20 11:27:02;;;;;;;17.17;11.98;;;13.80;68.50;;;;;;5104285;28;20228;-82
2021/11/20 11:29:49;;;;;;;16.17;11.70;;;13.70;68.20;;;;;;5121967;28;20160;-82
2021/11/20 11:32:16;;;;;;;18.33;12.00;;;13.80;68.00;;;;;;5120891;28;20174;-83
2021/11/20 11:35:05;;;;;;;16.73;11.30;;;13.70;67.80;;;;;;5102013;28;20206;-82
2021/11/20 11:37:53;;;;;;;17.83;12.07;;;13.60;67.80;;;;;;5098485;28;20317;-82
2021/11/20 11:40:42;;;;;;;21.58;13.60;;;13.50;67.80;;;;;;5102531;28;20225;-82
2021/11/20 11:43:20;;;;;;;20.15;11.93;;;13.10;68.20;;;;;;5055696;28;20210;-82
2021/11/20 11:46:06;;;;;;;17.77;13.00;;;13.10;68.60;;;;;;5083424;28;20168;-82
2021/11/20 11:48:47;;;;;;;24.17;13.90;;;13.10;68.80;;;;;;5121807;28;20247;-83
2021/11/20 11:51:13;;;;;;;18.85;12.75;;;13.20;68.90;;;;;;5102918;28;20206;-83
2021/11/20 11:54:00;;;;;;;24.73;15.03;;;13.10;69.00;;;;;;5101245;28;20198;-83
2021/11/20 11:56:33;;;;;;;20.45;13.52;;;13.10;69.10;;;;;;5102070;28;20517;-83
2021/11/20 11:59:08;;;;;;;21.35;14.20;;;13.10;69.20;;;;;;5104520;28;20171;-83
2021/11/20 12:01:43;;;;;;;20.55;13.05;;;13.20;69.30;;;;;;5101910;28;20179;-83
2021/11/20 12:04:18;;;;;;;32.10;17.45;;;13.40;69.30;;;;;;5087967;28;20199;-82
2021/11/20 12:06:47;;;;;;;32.63;18.80;;;13.60;69.70;;;;;;5099900;28;20164;-82
2021/11/20 12:09:23;;;;;;;27.92;18.33;;;13.40;69.50;;;;;;5081623;28;20179;-83
2021/11/20 12:11:50;;;;;;;28.10;17.70;;;13.30;69.80;;;;;;5081979;28;20202;-83
2021/11/20 12:14:34;;;;;;;30.35;17.75;;;13.30;69.70;;;;;;5100940;28;20211;-83
2021/11/20 12:17:21;;;;;;;28.02;18.13;;;13.30;69.80;;;;;;5082461;28;20580;-82
2021/11/20 12:20:05;;;;;;;26.90;18.40;;;13.40;69.80;;;;;;5100765;28;20168;-82
2021/11/20 12:22:52;;;;;;;32.53;18.60;;;13.40;69.60;;;;;;5064093;28;20187;-83
2021/11/20 12:25:31;;;;;;;30.95;16.90;;;13.40;69.30;;;;;;5067458;28;20547;-83
2021/11/20 12:28:10;;;;;;;33.33;19.55;;;13.50;69.70;;;;;;5070976;28;20184;-82
2021/11/20 12:31:04;;;;;;;31.00;19.08;;;13.10;69.70;;;;;;5068919;28;20600;-82
2021/11/20 12:33:51;;;;;;;31.52;20.38;;;13.10;69.70;;;;;;5062619;28;20549;-82
2021/11/20 12:36:19;;;;;;;30.23;19.65;;;13.10;69.70;;;;;;5063576;28;20207;-82
2021/11/20 12:39:20;;;;;;;33.25;19.42;;;13.00;69.70;;;;;;5078264;28;20180;-82
2021/11/20 12:42:11;;;;;;;39.65;21.05;;;13.20;69.60;;;;;;5083989;28;20179;-82
2021/11/20 12:44:58;;;;;;;32.53;20.23;;;13.00;69.60;;;;;;5084402;28;20188;-82
2021/11/20 12:47:36;;;;;;;33.83;20.92;;;13.30;70.10;;;;;;5083483;28;20187;-81
2021/11/20 12:50:10;;;;;;;28.70;18.45;;;13.10;69.70;;;;;;5101461;28;20175;-82
2021/11/20 12:53:07;;;;;;;30.75;19.88;;;13.20;69.80;;;;;;5099745;28;20202;-82